createdAt,value
2018-07-30T00:07:09.368Z,21.70
2018-07-30T00:09:44.140Z,21.70
2018-07-30T00:12:18.912Z,21.70
2018-07-30T00:14:53.652Z,21.70
2018-07-30T00:17:28.432Z,21.70
2018-07-30T00:22:39.452Z,21.60
2018-07-30T00:25:14.184Z,21.70
2018-07-30T00:27:50.012Z,21.70
2018-07-30T00:30:24.816Z,21.70
2018-07-30T00:32:59.560Z,21.60
2018-07-30T00:35:34.302Z,21.60
2018-07-30T00:38:11.968Z,21.60
2018-07-30T00:43:20.956Z,21.60
2018-07-30T00:45:55.751Z,21.70
2018-07-30T00:48:30.464Z,21.70
2018-07-30T00:53:39.594Z,21.70
2018-07-30T00:56:14.330Z,21.70
2018-07-30T01:01:23.337Z,21.60
2018-07-30T01:03:58.076Z,21.50
2018-07-30T01:06:32.821Z,21.60
2018-07-30T01:09:09.299Z,21.60
2018-07-30T01:14:18.279Z,21.60
2018-07-30T01:16:53.275Z,21.60
2018-07-30T01:19:27.993Z,21.60
2018-07-30T01:22:02.757Z,21.60
2018-07-30T01:24:37.548Z,21.60
2018-07-30T01:29:47.554Z,21.60
2018-07-30T01:32:23.342Z,21.60
2018-07-30T01:34:58.038Z,21.60
2018-07-30T01:37:32.777Z,21.60
2018-07-30T01:40:07.555Z,21.60
2018-07-30T01:42:42.285Z,21.60
2018-07-30T01:45:17.000Z,21.50
2018-07-30T01:50:27.005Z,21.50
2018-07-30T01:53:01.748Z,21.50
2018-07-30T01:55:36.508Z,21.40
2018-07-30T02:03:20.851Z,21.20
2018-07-30T02:05:55.647Z,21.20
2018-07-30T02:08:30.493Z,21.20
2018-07-30T02:11:05.216Z,21.10
2018-07-30T02:13:40.937Z,21.10
2018-07-30T02:16:16.708Z,21.00
2018-07-30T02:18:52.128Z,21.00
2018-07-30T02:21:26.921Z,21.00
2018-07-30T02:24:03.332Z,21.10
2018-07-30T02:26:41.784Z,21.10
2018-07-30T02:29:17.522Z,21.10
2018-07-30T02:32:00.536Z,21.10
2018-07-30T02:34:39.746Z,21.10
2018-07-30T02:37:14.854Z,21.20
2018-07-30T02:45:01.500Z,21.10
2018-07-30T02:47:36.336Z,21.00
2018-07-30T02:50:11.085Z,21.00
2018-07-30T02:52:45.776Z,20.90
2018-07-30T02:57:55.836Z,20.90
2018-07-30T03:03:04.864Z,20.90
2018-07-30T03:05:39.788Z,20.90
2018-07-30T03:08:15.523Z,20.90
2018-07-30T03:10:51.346Z,20.90
2018-07-30T03:13:26.149Z,20.90
2018-07-30T03:16:04.403Z,21.00
2018-07-30T03:18:44.538Z,21.00
2018-07-30T03:21:38.159Z,21.00
2018-07-30T03:24:13.089Z,21.10
2018-07-30T03:26:47.851Z,21.10
2018-07-30T03:29:23.230Z,21.10
2018-07-30T03:31:57.987Z,21.20
2018-07-30T03:34:32.722Z,21.20
2018-07-30T03:39:41.747Z,21.30
2018-07-30T03:42:26.700Z,21.30
2018-07-30T03:45:01.442Z,21.40
2018-07-30T03:47:36.199Z,21.40
2018-07-30T03:50:16.556Z,21.40
2018-07-30T03:52:51.365Z,21.40
2018-07-30T03:58:09.273Z,21.40
2018-07-30T04:00:44.174Z,21.50
2018-07-30T04:03:19.033Z,21.40
2018-07-30T04:06:03.850Z,21.40
2018-07-30T04:08:38.753Z,21.40
2018-07-30T04:11:14.471Z,21.40
2018-07-30T04:13:50.208Z,21.40
2018-07-30T04:16:27.307Z,21.40
2018-07-30T04:19:02.061Z,21.40
2018-07-30T04:21:36.748Z,21.40
2018-07-30T04:24:11.510Z,21.30
2018-07-30T04:26:47.198Z,21.30
2018-07-30T04:29:21.924Z,21.40
2018-07-30T04:31:56.692Z,21.40
2018-07-30T04:34:32.448Z,21.40
2018-07-30T04:37:07.195Z,21.40
2018-07-30T04:39:41.901Z,21.50
2018-07-30T04:42:16.644Z,21.50
2018-07-30T04:44:51.380Z,21.60
2018-07-30T04:47:26.082Z,21.70
2018-07-30T04:50:00.764Z,21.70
2018-07-30T04:52:35.549Z,21.80
2018-07-30T04:55:10.372Z,21.90
2018-07-30T04:57:45.140Z,22.00
2018-07-30T05:00:19.884Z,22.00
2018-07-30T05:06:03.874Z,22.10
2018-07-30T05:08:38.663Z,22.10
2018-07-30T05:11:13.417Z,22.10
2018-07-30T05:13:48.624Z,22.00
2018-07-30T05:16:23.354Z,22.10
2018-07-30T05:18:59.105Z,22.00
2018-07-30T05:21:34.844Z,22.10
2018-07-30T05:24:09.693Z,22.20
2018-07-30T05:26:44.428Z,22.20
2018-07-30T05:29:19.157Z,22.30
2018-07-30T05:31:53.912Z,22.50
2018-07-30T05:34:28.629Z,22.40
2018-07-30T05:37:03.724Z,22.60
2018-07-30T05:39:38.486Z,22.60
2018-07-30T05:42:13.256Z,22.70
2018-07-30T05:44:47.944Z,22.60
2018-07-30T05:47:22.715Z,22.60
2018-07-30T05:49:57.443Z,22.70
2018-07-30T05:52:32.195Z,22.80
2018-07-30T05:55:09.429Z,23.00
2018-07-30T06:00:18.772Z,24.20
2018-07-30T06:02:54.034Z,24.60
2018-07-30T06:05:28.880Z,24.80
2018-07-30T06:08:03.775Z,24.90
2018-07-30T06:13:13.924Z,24.90
2018-07-30T06:15:48.699Z,24.90
2018-07-30T06:18:24.438Z,24.80
2018-07-30T06:20:59.267Z,24.60
2018-07-30T06:23:34.145Z,24.40
2018-07-30T06:26:08.892Z,24.50
2018-07-30T06:28:43.628Z,24.60
2018-07-30T06:33:53.156Z,24.70
2018-07-30T06:36:30.586Z,24.70
2018-07-30T06:39:07.794Z,24.60
2018-07-30T06:41:43.647Z,24.70
2018-07-30T06:44:18.395Z,24.80
2018-07-30T06:46:54.152Z,25.10
2018-07-30T06:49:28.853Z,25.20
2018-07-30T06:52:03.671Z,25.40
2018-07-30T06:54:39.477Z,25.80
2018-07-30T06:57:15.251Z,26.20
2018-07-30T06:59:49.996Z,26.30
2018-07-30T07:02:25.097Z,26.60
2018-07-30T07:07:35.124Z,26.50
2018-07-30T07:10:12.088Z,26.20
2018-07-30T07:12:46.859Z,26.10
2018-07-30T07:15:21.612Z,25.90
2018-07-30T07:17:56.318Z,25.80
2018-07-30T07:20:32.095Z,25.80
2018-07-30T07:23:07.191Z,25.80
2018-07-30T07:25:41.933Z,26.00
2018-07-30T07:30:51.994Z,26.10
2018-07-30T07:33:27.748Z,26.20
2018-07-30T07:38:37.781Z,26.50
2018-07-30T07:41:13.495Z,26.80
2018-07-30T07:43:49.284Z,27.10
2018-07-30T07:46:25.012Z,27.40
2018-07-30T07:48:59.747Z,27.70
2018-07-30T07:51:34.212Z,28.00
2018-07-30T07:54:09.318Z,28.60
2018-07-30T07:56:43.752Z,29.00
2018-07-30T08:01:52.389Z,28.90
2018-07-30T08:04:26.864Z,29.30
2018-07-30T08:07:02.156Z,29.20
2018-07-30T08:09:37.694Z,29.70
2018-07-30T08:12:13.020Z,29.10
2018-07-30T08:17:23.340Z,28.70
2018-07-30T08:19:57.833Z,28.60
2018-07-30T08:22:32.252Z,28.80
2018-07-30T08:25:15.156Z,28.40
2018-07-30T08:27:51.245Z,28.30
2018-07-30T08:30:25.732Z,28.20
2018-07-30T08:35:34.335Z,28.60
2018-07-30T08:38:08.777Z,29.00
2018-07-30T08:43:17.241Z,29.10
2018-07-30T08:45:53.352Z,29.10
2018-07-30T08:51:02.289Z,29.90
2018-07-30T08:53:36.723Z,29.50
2018-07-30T08:58:45.201Z,29.80
2018-07-30T09:01:20.672Z,29.80
2018-07-30T09:03:55.226Z,29.00
2018-07-30T09:09:03.784Z,28.30
2018-07-30T09:11:38.499Z,28.30
2018-07-30T09:14:12.980Z,28.50
2018-07-30T09:16:47.456Z,28.50
2018-07-30T09:19:21.924Z,28.50
2018-07-30T09:21:56.361Z,28.40
2018-07-30T09:24:30.841Z,28.50
2018-07-30T09:27:06.314Z,28.80
2018-07-30T09:29:41.924Z,28.90
2018-07-30T09:32:16.388Z,28.90
2018-07-30T09:37:24.818Z,29.10
2018-07-30T09:42:33.316Z,30.20
2018-07-30T09:45:07.919Z,30.80
2018-07-30T09:47:42.421Z,31.30
2018-07-30T09:50:17.024Z,30.70
2018-07-30T09:52:51.551Z,31.00
2018-07-30T09:55:27.095Z,30.90
2018-07-30T09:58:01.524Z,30.50
2018-07-30T10:00:41.011Z,30.30
2018-07-30T10:03:15.456Z,30.80
2018-07-30T10:08:24.979Z,31.10
2018-07-30T10:10:59.497Z,31.00
2018-07-30T10:13:35.795Z,30.80
2018-07-30T10:16:12.784Z,31.30
2018-07-30T10:21:44.184Z,31.10
2018-07-30T10:24:31.649Z,30.40
2018-07-30T10:27:27.111Z,30.40
2018-07-30T10:30:10.528Z,30.10
2018-07-30T10:32:53.033Z,30.00
2018-07-30T10:35:27.604Z,30.00
2018-07-30T10:38:06.619Z,30.00
2018-07-30T10:40:44.062Z,29.80
2018-07-30T10:43:18.457Z,29.30
2018-07-30T10:45:54.127Z,28.90
2018-07-30T10:48:28.603Z,28.80
2018-07-30T10:51:03.936Z,28.80
2018-07-30T10:53:40.292Z,28.70
2018-07-30T10:56:20.459Z,28.60
2018-07-30T10:58:59.951Z,28.70
2018-07-30T11:01:39.400Z,28.90
2018-07-30T11:04:23.811Z,29.00
2018-07-30T11:07:02.249Z,29.30
2018-07-30T11:09:40.311Z,29.90
2018-07-30T11:12:18.405Z,30.40
2018-07-30T11:14:54.294Z,30.70
2018-07-30T11:17:30.640Z,30.30
2018-07-30T11:20:07.306Z,30.20
2018-07-30T11:22:45.610Z,30.10
2018-07-30T11:25:20.084Z,30.00
2018-07-30T11:31:08.745Z,29.80
2018-07-30T11:33:43.190Z,30.10
2018-07-30T11:36:23.434Z,30.10
2018-07-30T11:38:59.140Z,30.40
2018-07-30T11:41:33.540Z,30.10
2018-07-30T11:44:15.657Z,30.20
2018-07-30T11:47:07.511Z,30.40
2018-07-30T11:49:42.070Z,30.60
2018-07-30T11:52:16.859Z,30.80
2018-07-30T11:54:51.347Z,30.70
2018-07-30T11:57:35.052Z,30.50
2018-07-30T12:00:10.620Z,30.50
2018-07-30T12:05:38.748Z,30.30
2018-07-30T12:08:18.366Z,30.60
2018-07-30T12:10:53.171Z,30.70
2018-07-30T12:13:29.526Z,30.60
2018-07-30T12:16:06.034Z,30.50
2018-07-30T12:18:44.882Z,30.40
2018-07-30T12:23:56.556Z,30.50
2018-07-30T12:26:36.604Z,30.50
2018-07-30T12:29:13.469Z,30.50
2018-07-30T12:31:50.824Z,30.40
2018-07-30T12:37:07.516Z,30.20
2018-07-30T12:39:47.709Z,30.00
2018-07-30T12:42:24.230Z,30.10
2018-07-30T12:45:02.176Z,30.10
2018-07-30T12:47:38.976Z,30.30
2018-07-30T12:50:16.299Z,30.30
2018-07-30T12:52:54.150Z,30.40
2018-07-30T13:00:42.483Z,30.30
2018-07-30T13:06:08.838Z,30.50
2018-07-30T13:08:46.335Z,30.50
2018-07-30T13:11:24.448Z,30.50
2018-07-30T13:13:58.935Z,30.60
2018-07-30T13:16:36.980Z,30.70
2018-07-30T13:19:16.075Z,30.70
2018-07-30T13:21:54.603Z,30.60
2018-07-30T13:27:08.025Z,30.40
2018-07-30T13:29:43.857Z,30.30
2018-07-30T13:32:21.441Z,30.20
2018-07-30T13:34:58.770Z,30.20
2018-07-30T13:40:10.562Z,30.10
2018-07-30T13:42:47.640Z,30.10
2018-07-30T13:45:24.158Z,30.10
2018-07-30T13:48:01.246Z,30.10
2018-07-30T13:50:38.811Z,30.20
2018-07-30T13:53:14.660Z,30.20
2018-07-30T13:55:49.059Z,30.30
2018-07-30T13:58:23.516Z,30.40
2018-07-30T14:00:58.122Z,30.40
2018-07-30T14:03:32.595Z,30.50
2018-07-30T14:06:07.069Z,30.50
2018-07-30T14:08:41.703Z,30.50
2018-07-30T14:11:16.124Z,30.50
2018-07-30T14:13:50.973Z,30.80
2018-07-30T14:16:25.397Z,31.00
2018-07-30T14:19:00.875Z,31.10
2018-07-30T14:21:35.598Z,31.10
2018-07-30T14:24:10.320Z,31.20
2018-07-30T14:26:45.842Z,31.30
2018-07-30T14:29:21.320Z,31.10
2018-07-30T14:31:59.343Z,31.10
2018-07-30T14:34:33.764Z,31.00
2018-07-30T14:37:08.224Z,31.10
2018-07-30T14:39:42.602Z,31.30
2018-07-30T14:42:17.111Z,31.30
2018-07-30T14:44:51.547Z,31.20
2018-07-30T14:47:26.029Z,31.30
2018-07-30T14:52:34.435Z,31.40
2018-07-30T14:55:09.119Z,31.50
2018-07-30T14:57:43.588Z,31.50
2018-07-30T15:00:18.000Z,31.20
2018-07-30T15:02:53.445Z,31.20
2018-07-30T15:05:27.965Z,31.10
2018-07-30T15:08:02.406Z,31.00
2018-07-30T15:10:36.894Z,30.80
2018-07-30T15:13:11.270Z,30.80
2018-07-30T15:15:46.756Z,31.00
2018-07-30T15:18:21.175Z,31.00
2018-07-30T15:23:45.236Z,31.00
2018-07-30T15:26:38.177Z,31.10
2018-07-30T15:29:12.623Z,31.20
2018-07-30T15:31:48.931Z,31.10
2018-07-30T15:34:36.360Z,31.00
2018-07-30T15:37:13.104Z,30.80
2018-07-30T15:39:53.157Z,30.80
2018-07-30T15:42:28.594Z,30.80
2018-07-30T15:45:03.848Z,30.90
2018-07-30T15:50:14.000Z,30.80
2018-07-30T15:52:48.517Z,30.70
2018-07-30T15:55:25.007Z,30.80
2018-07-30T15:58:00.775Z,30.70
2018-07-30T16:00:35.616Z,30.60
2018-07-30T16:03:10.272Z,30.70
2018-07-30T16:05:45.015Z,30.80
2018-07-30T16:08:21.410Z,30.90
2018-07-30T16:10:56.796Z,30.90
2018-07-30T16:13:33.315Z,30.90
2018-07-30T16:16:07.817Z,30.80
2018-07-30T16:18:42.313Z,30.70
2018-07-30T16:21:16.871Z,30.60
2018-07-30T16:23:51.434Z,30.60
2018-07-30T16:26:25.991Z,30.60
2018-07-30T16:29:01.550Z,30.60
2018-07-30T16:31:36.371Z,30.60
2018-07-30T16:34:10.890Z,30.60
2018-07-30T16:36:46.858Z,30.70
2018-07-30T16:39:22.430Z,30.70
2018-07-30T16:41:56.913Z,30.70
2018-07-30T16:44:31.435Z,30.70
2018-07-30T16:47:05.977Z,30.60
2018-07-30T16:49:40.560Z,30.50
2018-07-30T16:52:15.367Z,30.50
2018-07-30T16:54:50.104Z,30.50
2018-07-30T16:57:24.928Z,30.50
2018-07-30T17:00:00.365Z,30.50
2018-07-30T17:02:34.831Z,30.50
2018-07-30T17:05:09.663Z,30.50
2018-07-30T17:07:44.282Z,30.50
2018-07-30T17:10:18.760Z,30.40
2018-07-30T17:12:53.166Z,30.30
2018-07-30T17:15:27.600Z,30.30
2018-07-30T17:18:01.978Z,30.20
2018-07-30T17:20:36.473Z,30.20
2018-07-30T17:23:10.973Z,30.20
2018-07-30T17:25:45.587Z,30.10
2018-07-30T17:28:20.018Z,30.10
2018-07-30T17:30:54.434Z,30.00
2018-07-30T17:33:29.896Z,30.00
2018-07-30T17:36:04.416Z,29.90
2018-07-30T17:38:38.871Z,29.90
2018-07-30T17:41:13.275Z,29.80
2018-07-30T17:46:23.683Z,29.70
2018-07-30T17:48:58.381Z,29.60
2018-07-30T17:51:32.817Z,29.60
2018-07-30T17:54:10.283Z,29.50
2018-07-30T17:59:18.684Z,29.30
2018-07-30T18:01:53.113Z,29.30
2018-07-30T18:04:27.547Z,29.20
2018-07-30T18:07:01.913Z,29.10
2018-07-30T18:09:36.392Z,29.00
2018-07-30T18:12:10.805Z,28.90
2018-07-30T18:17:19.501Z,28.80
2018-07-30T18:19:54.903Z,28.70
2018-07-30T18:22:29.385Z,28.60
2018-07-30T18:25:03.909Z,28.60
2018-07-30T18:27:39.343Z,28.50
2018-07-30T18:30:13.775Z,28.40
2018-07-30T18:32:48.190Z,28.30
2018-07-30T18:35:22.620Z,28.30
2018-07-30T18:37:57.015Z,28.20
2018-07-30T18:40:32.467Z,28.10
2018-07-30T18:43:06.862Z,28.00
2018-07-30T18:45:41.350Z,27.90
2018-07-30T18:48:15.756Z,27.80
2018-07-30T18:50:50.225Z,27.70
2018-07-30T18:53:24.665Z,27.60
2018-07-30T18:55:59.423Z,27.60
2018-07-30T18:58:33.928Z,27.60
2018-07-30T19:01:08.724Z,27.50
2018-07-30T19:03:43.455Z,27.40
2018-07-30T19:06:18.211Z,27.40
2018-07-30T19:11:27.124Z,27.30
2018-07-30T19:14:01.865Z,27.20
2018-07-30T19:16:36.587Z,27.20
2018-07-30T19:19:13.400Z,27.20
2018-07-30T19:27:03.366Z,27.10
2018-07-30T19:29:40.269Z,27.00
2018-07-30T19:32:17.270Z,27.00
2018-07-30T19:34:53.714Z,27.00
2018-07-30T19:37:29.589Z,26.90
2018-07-30T19:40:06.736Z,26.90
2018-07-30T19:42:43.783Z,26.90
2018-07-30T19:45:23.112Z,26.80
2018-07-30T19:47:59.114Z,26.70
2018-07-30T19:50:36.383Z,26.60
2018-07-30T19:53:14.910Z,26.50
2018-07-30T19:55:54.077Z,26.50
2018-07-30T19:58:31.386Z,26.40
2018-07-30T20:01:08.313Z,26.40
2018-07-30T20:03:45.737Z,26.30
2018-07-30T20:06:28.293Z,26.30
2018-07-30T20:09:04.272Z,26.20
2018-07-30T20:11:40.198Z,26.10
2018-07-30T20:14:17.052Z,26.10
2018-07-30T20:16:54.823Z,26.00
2018-07-30T20:19:32.827Z,25.90
2018-07-30T20:22:10.173Z,25.90
2018-07-30T20:24:46.353Z,25.80
2018-07-30T20:27:24.388Z,25.80
2018-07-30T20:30:02.976Z,25.80
2018-07-30T20:32:40.318Z,25.70
2018-07-30T20:35:18.715Z,25.60
2018-07-30T20:37:57.779Z,25.50
2018-07-30T20:40:36.575Z,25.50
2018-07-30T20:43:15.259Z,25.50
2018-07-30T20:45:52.895Z,25.50
2018-07-30T20:51:06.894Z,25.30
2018-07-30T20:56:20.710Z,25.20
2018-07-30T20:59:02.357Z,25.20
2018-07-30T21:01:39.528Z,25.10
2018-07-30T21:04:17.676Z,25.00
2018-07-30T21:06:54.887Z,24.90
2018-07-30T21:09:33.349Z,24.90
2018-07-30T21:12:10.970Z,24.90
2018-07-30T21:14:50.282Z,24.80
2018-07-30T21:17:25.317Z,24.80
2018-07-30T21:20:05.966Z,24.80
2018-07-30T21:22:48.332Z,24.80
2018-07-30T21:25:25.736Z,24.80
2018-07-30T21:28:01.857Z,24.70
2018-07-30T21:30:38.717Z,24.70
2018-07-30T21:33:17.111Z,24.60
2018-07-30T21:35:54.229Z,24.60
2018-07-30T21:38:33.991Z,24.60
2018-07-30T21:41:16.540Z,24.60
2018-07-30T21:43:57.723Z,24.60
2018-07-30T21:46:45.945Z,24.50
2018-07-30T21:49:24.842Z,24.50
2018-07-30T21:52:01.323Z,24.40
2018-07-30T21:54:38.434Z,24.40
2018-07-30T21:57:26.323Z,24.40
2018-07-30T22:00:05.511Z,24.30
2018-07-30T22:02:44.051Z,24.30
2018-07-30T22:05:22.718Z,24.20
2018-07-30T22:10:39.552Z,24.20
2018-07-30T22:13:16.301Z,24.20
2018-07-30T22:18:29.833Z,24.10
2018-07-30T22:21:07.549Z,24.20
2018-07-30T22:23:42.379Z,24.10
2018-07-30T22:28:51.377Z,24.00
2018-07-30T22:31:26.112Z,24.00
2018-07-30T22:34:01.900Z,24.00
2018-07-30T22:36:37.671Z,23.90
2018-07-30T22:39:13.996Z,23.90
2018-07-30T22:41:48.765Z,23.90
2018-07-30T22:44:23.475Z,23.90
2018-07-30T22:46:58.197Z,23.90
2018-07-30T22:49:32.951Z,23.90
2018-07-30T22:52:07.701Z,24.00
2018-07-30T22:54:42.467Z,24.00
2018-07-30T23:07:09.395Z,24.10
2018-07-30T23:09:55.751Z,24.10
2018-07-30T23:12:40.657Z,24.10
2018-07-30T23:18:22.818Z,24.00
2018-07-30T23:21:16.329Z,24.00
2018-07-30T23:26:54.614Z,24.10
2018-07-30T23:29:39.503Z,24.10
2018-07-30T23:32:14.548Z,24.00
2018-07-30T23:34:49.255Z,24.00
2018-07-30T23:37:25.196Z,24.00
2018-07-30T23:42:38.029Z,23.90
2018-07-30T23:45:13.980Z,23.80
2018-07-30T23:47:52.708Z,23.70
2018-07-30T23:50:32.371Z,23.70
2018-07-30T23:53:12.594Z,23.60
2018-07-30T23:55:50.698Z,23.50
2018-07-30T23:58:29.271Z,23.40
